Time;durP1;ratioP1;P1;durP2;ratioP2;P2;SDS_P1;SDS_P2;PMS_P1;PMS_P2;Temp;Humidity;BMP_temperature;BMP_pressure;BME280_temperature;BME280_humidity;BME280_pressure;Samples;Min_cycle;Max_cycle;Signal;HPM_P1;HPM_P2
2021/06/16 00:00:47;;;;;;;2.75;1.90;;;18.90;84.70;;;;;;4923640;29;20051;-71
2021/06/16 00:03:14;;;;;;;2.30;1.90;;;18.70;85.30;;;;;;4922336;29;20032;-71
2021/06/16 00:05:42;;;;;;;2.95;2.17;;;18.60;87.40;;;;;;4924110;29;20039;-74
2021/06/16 00:08:11;;;;;;;3.08;2.45;;;18.60;88.80;;;;;;4923133;29;20042;-71
2021/06/16 00:10:38;;;;;;;2.60;1.95;;;19.00;86.20;;;;;;4922910;29;20134;-73
2021/06/16 00:13:06;;;;;;;2.25;1.77;;;19.20;85.60;;;;;;4926299;29;20023;-72
2021/06/16 00:15:35;;;;;;;2.65;1.88;;;19.90;83.00;;;;;;4924701;29;20028;-72
2021/06/16 00:18:04;;;;;;;2.60;2.17;;;20.10;82.50;;;;;;4921688;29;20431;-71
2021/06/16 00:20:31;;;;;;;3.25;2.25;;;20.30;81.10;;;;;;4924004;29;20047;-71
2021/06/16 00:22:59;;;;;;;2.60;2.13;;;20.60;81.10;;;;;;4922248;29;20562;-73
2021/06/16 00:25:27;;;;;;;4.10;2.15;;;20.80;79.30;;;;;;4925314;29;20046;-71
2021/06/16 00:27:55;;;;;;;2.30;2.00;;;21.00;80.40;;;;;;4927097;29;20372;-72
2021/06/16 00:30:23;;;;;;;2.67;2.35;;;21.20;78.60;;;;;;4927255;29;20042;-71
2021/06/16 00:32:51;;;;;;;2.63;2.15;;;21.10;79.50;;;;;;4929775;29;20042;-71
2021/06/16 00:35:20;;;;;;;2.60;2.17;;;20.80;79.50;;;;;;4928230;29;20031;-71
2021/06/16 00:37:48;;;;;;;6.40;2.83;;;20.50;79.30;;;;;;4926082;29;20120;-72
2021/06/16 00:40:19;;;;;;;3.65;2.95;;;20.40;79.90;;;;;;4931341;29;20510;-71
2021/06/16 00:42:47;;;;;;;3.75;3.20;;;21.00;80.20;;;;;;4931000;29;20459;-72
2021/06/16 00:45:15;;;;;;;5.30;2.95;;;20.90;79.60;;;;;;4930625;29;20039;-71
2021/06/16 00:47:42;;;;;;;3.60;2.17;;;21.20;78.40;;;;;;4928752;29;20111;-73
2021/06/16 00:50:11;;;;;;;3.55;2.33;;;21.70;77.30;;;;;;4928594;29;20031;-72
2021/06/16 00:52:39;;;;;;;2.85;2.65;;;21.40;77.50;;;;;;4926683;29;20028;-71
2021/06/16 00:55:07;;;;;;;4.05;2.58;;;21.40;77.30;;;;;;4925056;29;20031;-71
2021/06/16 00:57:35;;;;;;;3.60;2.38;;;21.40;78.70;;;;;;4921679;29;20028;-71
2021/06/16 01:00:09;;;;;;;2.97;2.45;;;21.50;76.30;;;;;;4928657;29;20042;-71
2021/06/16 01:02:46;;;;;;;3.78;2.60;;;21.00;77.80;;;;;;4928029;29;20034;-71
2021/06/16 01:05:16;;;;;;;3.38;3.08;;;21.50;79.40;;;;;;4926766;29;20115;-71
2021/06/16 01:07:45;;;;;;;2.92;2.22;;;22.10;76.30;;;;;;4925927;29;20071;-71
2021/06/16 01:10:19;;;;;;;2.35;1.85;;;22.30;76.10;;;;;;4924738;29;20138;-71
2021/06/16 01:13:24;;;;;;;3.83;2.40;;;22.60;73.80;;;;;;4926385;29;20028;-69
2021/06/16 01:16:24;;;;;;;4.45;2.65;;;22.80;73.20;;;;;;4930142;29;20028;-68
2021/06/16 01:18:55;;;;;;;3.53;2.47;;;23.10;71.40;;;;;;4924504;29;20067;-69
2021/06/16 01:21:24;;;;;;;4.20;2.78;;;22.70;72.90;;;;;;4926539;29;20107;-70
2021/06/16 01:24:03;;;;;;;2.97;2.60;;;22.70;72.20;;;;;;4923492;29;20055;-70
2021/06/16 01:26:34;;;;;;;2.75;2.47;;;22.30;73.80;;;;;;4926324;29;20194;-70
2021/06/16 01:29:13;;;;;;;3.08;2.67;;;22.70;72.80;;;;;;4924281;29;20071;-70
2021/06/16 01:31:42;;;;;;;2.58;2.20;;;22.20;73.70;;;;;;4925845;29;20559;-71
2021/06/16 01:34:14;;;;;;;4.13;2.90;;;22.60;73.00;;;;;;4925784;29;20028;-70
2021/06/16 01:36:45;;;;;;;2.25;1.95;;;22.80;70.70;;;;;;4924361;29;20035;-70
2021/06/16 01:39:16;;;;;;;4.55;2.45;;;23.00;73.20;;;;;;4924935;29;20431;-71
2021/06/16 01:41:44;;;;;;;3.25;2.22;;;24.00;71.00;;;;;;4925846;29;20032;-71
2021/06/16 01:44:13;;;;;;;3.17;2.53;;;24.10;67.90;;;;;;4928979;29;20111;-71
2021/06/16 01:46:43;;;;;;;4.25;2.20;;;24.50;66.90;;;;;;4925284;29;20046;-71
2021/06/16 01:49:12;;;;;;;3.00;2.13;;;25.20;65.70;;;;;;4927048;29;20132;-71
2021/06/16 01:51:41;;;;;;;5.03;2.65;;;24.90;65.30;;;;;;4927476;29;20386;-70
2021/06/16 01:54:10;;;;;;;7.18;2.63;;;24.80;64.00;;;;;;4923964;29;20483;-71
2021/06/16 01:56:39;;;;;;;3.67;2.97;;;25.00;64.40;;;;;;4926088;29;20790;-72
2021/06/16 01:59:10;;;;;;;3.55;3.25;;;25.00;63.60;;;;;;4924782;29;20117;-72
2021/06/16 02:01:38;;;;;;;5.50;3.92;;;24.70;65.20;;;;;;4927043;29;20175;-71
2021/06/16 02:04:05;;;;;;;6.20;3.88;;;24.60;64.80;;;;;;4925224;29;20067;-71
2021/06/16 02:06:40;;;;;;;7.63;4.28;;;24.70;65.40;;;;;;4922574;29;20040;-71
2021/06/16 02:09:10;;;;;;;4.38;2.75;;;24.90;64.80;;;;;;4927455;29;20024;-72
2021/06/16 02:11:42;;;;;;;6.38;2.33;;;24.10;64.40;;;;;;4926449;29;20048;-71
2021/06/16 02:14:17;;;;;;;3.88;2.60;;;24.20;63.20;;;;;;4926403;29;20110;-71
2021/06/16 02:16:55;;;;;;;2.70;1.92;;;23.70;64.30;;;;;;4926579;29;20063;-71
2021/06/16 02:19:27;;;;;;;3.35;2.08;;;23.60;64.40;;;;;;4922006;29;20043;-71
2021/06/16 02:21:56;;;;;;;3.53;1.92;;;23.60;65.30;;;;;;4925964;29;20041;-71
2021/06/16 02:24:24;;;;;;;2.65;1.63;;;23.90;66.90;;;;;;4926262;29;20040;-72
2021/06/16 02:26:53;;;;;;;7.78;3.33;;;24.10;64.30;;;;;;4925778;29;20050;-71
2021/06/16 02:29:22;;;;;;;3.67;2.30;;;24.50;64.60;;;;;;4924753;29;20558;-71
2021/06/16 02:31:49;;;;;;;3.67;1.92;;;24.60;65.00;;;;;;4925325;29;20451;-71
2021/06/16 02:34:17;;;;;;;4.18;1.23;;;24.50;63.80;;;;;;4923191;29;20245;-72
2021/06/16 02:36:47;;;;;;;3.03;1.63;;;24.00;63.80;;;;;;4925245;29;20897;-72
2021/06/16 02:39:55;;;;;;;1.73;1.10;;;24.10;63.60;;;;;;4922763;29;20086;-71
2021/06/16 02:42:23;;;;;;;1.92;1.27;;;23.70;64.10;;;;;;4922181;29;20039;-71
2021/06/16 02:44:51;;;;;;;2.88;1.00;;;24.10;64.00;;;;;;4925222;29;20118;-71
2021/06/16 02:47:19;;;;;;;2.70;1.00;;;24.20;65.50;;;;;;4908705;29;20038;-70
2021/06/16 02:49:56;;;;;;;4.85;1.40;;;24.70;61.90;;;;;;4925283;29;20439;-70
2021/06/16 02:52:25;;;;;;;2.03;1.00;;;24.60;61.70;;;;;;4925954;29;20035;-70
2021/06/16 02:55:06;;;;;;;3.10;1.38;;;24.40;61.90;;;;;;4924553;29;20435;-70
2021/06/16 02:57:35;;;;;;;2.78;1.83;;;24.40;61.50;;;;;;4924312;29;20031;-70
2021/06/16 03:00:06;;;;;;;1.85;1.05;;;24.40;61.60;;;;;;4920368;29;20067;-71
2021/06/16 03:02:36;;;;;;;2.90;1.42;;;24.60;62.10;;;;;;4928240;29;20032;-70
2021/06/16 03:05:07;;;;;;;1.48;0.60;;;24.40;63.30;;;;;;4922849;29;20086;-71
2021/06/16 03:07:38;;;;;;;2.50;1.20;;;23.80;61.90;;;;;;4926469;29;20024;-71
2021/06/16 03:10:08;;;;;;;2.38;1.17;;;23.30;61.10;;;;;;4925835;29;20111;-70
2021/06/16 03:12:37;;;;;;;1.80;1.00;;;23.60;62.10;;;;;;4923871;29;20054;-72
2021/06/16 03:15:06;;;;;;;1.73;0.77;;;23.90;62.80;;;;;;4926904;29;20386;-72
2021/06/16 03:17:35;;;;;;;1.00;0.80;;;23.80;61.50;;;;;;4930768;29;20499;-70
2021/06/16 03:20:04;;;;;;;2.10;0.90;;;23.50;61.40;;;;;;4923954;29;20119;-71
2021/06/16 03:22:32;;;;;;;1.65;0.93;;;23.50;62.90;;;;;;4929899;29;20071;-70
2021/06/16 03:25:00;;;;;;;2.10;1.25;;;23.30;62.50;;;;;;4927235;29;20119;-71
2021/06/16 03:27:28;;;;;;;2.88;1.48;;;22.60;64.40;;;;;;4929097;29;20091;-71
2021/06/16 03:29:56;;;;;;;4.00;1.88;;;22.10;65.40;;;;;;4924930;29;20475;-73
2021/06/16 03:32:24;;;;;;;3.30;2.20;;;21.60;68.10;;;;;;4922095;29;20038;-71
2021/06/16 03:34:52;;;;;;;3.63;2.10;;;21.30;69.50;;;;;;4925537;29;20378;-71
2021/06/16 03:37:20;;;;;;;5.45;2.13;;;21.10;70.00;;;;;;4923855;29;20114;-71
2021/06/16 03:39:52;;;;;;;4.97;1.60;;;21.10;71.60;;;;;;4925086;29;20023;-70
2021/06/16 03:42:21;;;;;;;5.00;2.45;;;20.80;71.90;;;;;;4920152;29;20035;-69
2021/06/16 03:44:49;;;;;;;5.82;2.88;;;20.60;72.20;;;;;;4925841;29;20024;-72
2021/06/16 03:47:19;;;;;;;2.08;1.63;;;20.20;73.20;;;;;;4926186;29;20040;-71
2021/06/16 03:49:48;;;;;;;2.75;2.17;;;20.00;74.40;;;;;;4921455;29;20551;-71
2021/06/16 03:52:18;;;;;;;3.05;2.05;;;19.50;75.10;;;;;;4923660;29;20060;-71
2021/06/16 03:54:47;;;;;;;3.55;2.47;;;19.10;76.60;;;;;;4921127;29;20154;-71
2021/06/16 03:57:15;;;;;;;5.72;2.03;;;19.00;77.80;;;;;;4918845;29;20028;-70
2021/06/16 03:59:43;;;;;;;3.78;2.13;;;19.00;78.20;;;;;;4925373;29;20024;-72
2021/06/16 04:02:10;;;;;;;3.28;1.77;;;19.10;78.10;;;;;;4926262;29;21947;-71
2021/06/16 04:04:38;;;;;;;4.28;1.85;;;19.20;78.30;;;;;;4927458;29;20498;-70
2021/06/16 04:07:06;;;;;;;6.13;2.03;;;19.30;77.50;;;;;;4922768;29;20403;-71
2021/06/16 04:09:34;;;;;;;3.58;1.88;;;19.40;78.60;;;;;;4928112;29;20027;-71
2021/06/16 04:12:01;;;;;;;2.45;1.63;;;19.50;78.50;;;;;;4925422;29;20039;-70
2021/06/16 04:14:29;;;;;;;7.28;1.38;;;19.50;77.60;;;;;;4925588;29;20059;-70
2021/06/16 04:16:57;;;;;;;3.05;1.40;;;19.50;78.90;;;;;;4928150;29;20099;-70
2021/06/16 04:19:25;;;;;;;1.85;1.20;;;19.30;79.20;;;;;;4927832;29;20074;-71
2021/06/16 04:21:52;;;;;;;2.08;1.17;;;19.10;78.80;;;;;;4926731;29;20451;-71
2021/06/16 04:24:19;;;;;;;1.58;1.00;;;19.10;79.30;;;;;;4927423;29;20086;-71
2021/06/16 04:26:47;;;;;;;2.15;1.05;;;19.00;79.90;;;;;;4926619;29;20490;-72
2021/06/16 04:29:14;;;;;;;1.92;1.10;;;18.80;80.20;;;;;;4927851;29;20545;-71
2021/06/16 04:31:41;;;;;;;2.13;1.10;;;18.60;80.70;;;;;;4911316;29;20039;-71
2021/06/16 04:34:09;;;;;;;1.52;1.15;;;18.50;81.40;;;;;;4927397;29;20121;-70
2021/06/16 04:36:36;;;;;;;1.10;0.75;;;18.70;83.50;;;;;;4926332;29;20122;-71
2021/06/16 04:39:04;;;;;;;2.80;0.95;;;18.80;82.70;;;;;;4928126;29;20482;-69
2021/06/16 04:41:31;;;;;;;1.75;1.00;;;18.80;83.00;;;;;;4927146;29;20054;-73
2021/06/16 04:43:59;;;;;;;1.77;1.48;;;18.90;81.80;;;;;;4926217;29;20471;-74
2021/06/16 04:46:27;;;;;;;3.25;0.82;;;19.00;81.80;;;;;;4928681;29;20461;-70
2021/06/16 04:48:54;;;;;;;3.38;0.98;;;19.30;80.70;;;;;;4930914;29;20027;-72
2021/06/16 04:51:21;;;;;;;2.30;0.80;;;19.20;80.40;;;;;;4926097;29;20038;-72
2021/06/16 04:53:49;;;;;;;1.77;0.80;;;19.20;81.10;;;;;;4926070;29;20039;-70
2021/06/16 04:56:16;;;;;;;1.20;0.80;;;19.10;81.60;;;;;;4925218;29;20038;-71
2021/06/16 04:58:44;;;;;;;1.48;0.70;;;19.10;81.40;;;;;;4928816;29;20035;-71
2021/06/16 05:01:11;;;;;;;1.73;1.08;;;19.10;82.00;;;;;;4928870;29;20074;-72
2021/06/16 05:03:39;;;;;;;0.90;0.60;;;19.00;81.40;;;;;;4928722;29;20017;-72
2021/06/16 05:06:07;;;;;;;1.08;0.68;;;18.90;82.00;;;;;;4930889;29;20067;-73
2021/06/16 05:08:34;;;;;;;2.10;1.00;;;18.70;82.30;;;;;;4933666;29;20047;-72
2021/06/16 05:11:01;;;;;;;1.95;1.15;;;18.60;83.50;;;;;;4929058;29;20091;-72
2021/06/16 05:13:29;;;;;;;1.30;0.90;;;18.50;84.60;;;;;;4927259;29;20470;-71
2021/06/16 05:15:58;;;;;;;1.33;0.90;;;18.40;84.80;;;;;;4931110;29;20459;-74
2021/06/16 05:18:26;;;;;;;2.83;1.10;;;18.40;85.60;;;;;;4931412;29;20027;-72
2021/06/16 05:20:54;;;;;;;1.77;1.00;;;18.50;86.70;;;;;;4927011;29;20513;-71
2021/06/16 05:23:27;;;;;;;1.80;0.95;;;18.80;85.20;;;;;;4925860;29;20035;-72
2021/06/16 05:25:54;;;;;;;1.33;0.95;;;19.00;84.30;;;;;;4928212;29;20032;-73
2021/06/16 05:28:22;;;;;;;1.40;0.80;;;19.10;83.70;;;;;;4925472;29;20380;-72
2021/06/16 05:30:50;;;;;;;1.92;0.98;;;19.10;83.70;;;;;;4924390;29;20043;-72
2021/06/16 05:33:17;;;;;;;2.22;0.85;;;19.00;85.60;;;;;;4925248;29;20383;-71
2021/06/16 05:35:45;;;;;;;1.55;0.45;;;18.80;86.70;;;;;;4926077;29;21602;-72
2021/06/16 05:38:12;;;;;;;1.75;0.40;;;18.60;87.10;;;;;;4920131;29;20040;-74
2021/06/16 05:40:42;;;;;;;2.55;0.80;;;18.60;86.90;;;;;;4927809;29;20550;-71
2021/06/16 05:43:09;;;;;;;1.58;0.68;;;18.40;85.60;;;;;;4924611;29;20516;-70
2021/06/16 05:45:37;;;;;;;0.80;0.50;;;18.20;87.80;;;;;;4923371;29;20040;-71
2021/06/16 05:48:05;;;;;;;2.28;1.02;;;18.10;87.20;;;;;;4928528;29;20036;-70
2021/06/16 05:50:35;;;;;;;1.00;0.65;;;18.10;88.10;;;;;;4911349;29;20046;-68
2021/06/16 05:53:02;;;;;;;3.20;1.00;;;18.00;88.10;;;;;;4930824;29;20027;-71
2021/06/16 05:55:31;;;;;;;1.05;0.60;;;17.90;88.10;;;;;;4931065;29;20383;-69
2021/06/16 05:58:01;;;;;;;1.52;0.80;;;17.80;89.00;;;;;;4927118;29;20023;-71
2021/06/16 06:00:30;;;;;;;2.85;1.10;;;17.60;90.00;;;;;;4923175;29;20044;-70
2021/06/16 06:02:57;;;;;;;1.13;0.45;;;17.60;90.10;;;;;;4929097;29;20106;-71
2021/06/16 06:05:25;;;;;;;0.75;0.60;;;17.60;90.00;;;;;;4926745;29;20068;-70
2021/06/16 06:07:56;;;;;;;1.13;0.50;;;17.60;90.80;;;;;;4921486;29;20043;-70
2021/06/16 06:10:24;;;;;;;1.33;0.70;;;17.60;89.90;;;;;;4930106;29;20047;-72
2021/06/16 06:12:52;;;;;;;1.15;0.43;;;17.50;90.40;;;;;;4926330;29;20505;-72
2021/06/16 06:15:20;;;;;;;1.02;0.57;;;17.60;90.90;;;;;;4923928;29;20363;-71
2021/06/16 06:17:56;;;;;;;3.90;1.52;;;17.60;90.80;;;;;;4910344;29;20032;-71
2021/06/16 06:20:26;;;;;;;2.10;0.73;;;17.50;90.90;;;;;;4927512;29;20036;-70
2021/06/16 06:22:56;;;;;;;2.17;1.20;;;17.50;90.90;;;;;;4925457;29;20023;-73
2021/06/16 06:25:24;;;;;;;1.42;0.93;;;17.40;91.40;;;;;;4929019;29;20439;-73
2021/06/16 06:27:51;;;;;;;2.50;1.15;;;17.40;91.60;;;;;;4930367;29;20041;-74
2021/06/16 06:30:19;;;;;;;3.80;1.20;;;17.30;91.60;;;;;;4926153;29;20027;-73
2021/06/16 06:32:46;;;;;;;3.30;1.30;;;17.30;91.90;;;;;;4926904;29;20020;-74
2021/06/16 06:35:14;;;;;;;2.85;1.45;;;17.10;92.10;;;;;;4926162;29;20031;-72
2021/06/16 06:37:41;;;;;;;3.20;1.30;;;17.10;92.20;;;;;;4925193;29;20036;-72
2021/06/16 06:40:09;;;;;;;1.63;1.08;;;17.10;92.70;;;;;;4925670;29;20028;-72
2021/06/16 06:42:36;;;;;;;3.80;1.38;;;17.00;92.90;;;;;;4929522;29;20039;-73
2021/06/16 06:45:07;;;;;;;3.13;1.60;;;17.00;93.30;;;;;;4923273;29;20036;-72
2021/06/16 06:47:35;;;;;;;4.10;1.98;;;17.00;93.20;;;;;;4923388;29;20114;-74
2021/06/16 06:50:03;;;;;;;4.60;2.95;;;16.90;93.30;;;;;;4925694;29;20028;-74
2021/06/16 06:52:30;;;;;;;3.40;1.90;;;16.80;93.20;;;;;;4925898;29;20035;-75
2021/06/16 06:54:58;;;;;;;3.90;2.10;;;16.80;93.50;;;;;;4926446;29;20054;-76
2021/06/16 06:57:25;;;;;;;4.13;2.70;;;16.80;93.90;;;;;;4924497;29;21197;-75
2021/06/16 06:59:53;;;;;;;7.95;3.60;;;16.70;94.10;;;;;;4910752;29;20506;-70
2021/06/16 07:02:20;;;;;;;34.03;14.98;;;16.70;94.10;;;;;;4923973;29;20031;-76
2021/06/16 07:04:47;;;;;;;36.05;14.93;;;16.60;94.00;;;;;;4926398;29;20639;-75
2021/06/16 07:07:15;;;;;;;24.55;11.55;;;16.50;94.40;;;;;;4923240;29;20047;-74
2021/06/16 07:09:46;;;;;;;23.77;10.25;;;16.50;94.60;;;;;;4926081;29;20039;-74
2021/06/16 07:12:13;;;;;;;27.25;11.00;;;16.30;94.80;;;;;;4922301;29;20028;-75
2021/06/16 07:14:41;;;;;;;21.17;10.68;;;16.20;95.20;;;;;;4924239;29;20390;-74
2021/06/16 07:17:08;;;;;;;21.83;8.82;;;16.00;95.50;;;;;;4925335;29;20035;-74
2021/06/16 07:19:36;;;;;;;17.38;8.63;;;15.90;95.70;;;;;;4923143;29;20031;-72
2021/06/16 07:22:04;;;;;;;16.55;6.90;;;15.80;96.10;;;;;;4923017;29;20112;-73
2021/06/16 07:24:31;;;;;;;16.55;8.00;;;15.80;96.30;;;;;;4922685;29;20039;-75
2021/06/16 07:26:59;;;;;;;17.83;10.02;;;15.70;96.40;;;;;;4924237;29;20167;-74
2021/06/16 07:29:26;;;;;;;30.67;15.95;;;15.60;96.50;;;;;;4926399;29;20483;-75
2021/06/16 07:31:53;;;;;;;23.90;12.80;;;15.50;96.60;;;;;;4922852;29;20046;-72
2021/06/16 07:34:21;;;;;;;27.77;14.85;;;15.60;96.90;;;;;;4923745;29;20095;-75
2021/06/16 07:36:49;;;;;;;27.92;14.18;;;15.60;97.10;;;;;;4924819;29;20031;-71
2021/06/16 07:39:16;;;;;;;27.98;16.92;;;15.70;97.10;;;;;;4927454;29;20038;-74
2021/06/16 07:41:44;;;;;;;37.50;18.92;;;15.60;97.10;;;;;;4924971;29;20031;-73
2021/06/16 07:44:11;;;;;;;35.35;19.58;;;15.50;97.00;;;;;;4925493;29;20034;-74
2021/06/16 07:46:39;;;;;;;38.58;22.48;;;15.50;97.10;;;;;;4924307;29;20139;-72
2021/06/16 07:49:07;;;;;;;38.65;20.77;;;15.50;97.20;;;;;;4924323;29;20024;-73
2021/06/16 07:51:34;;;;;;;72.10;32.63;;;15.40;97.30;;;;;;4924064;29;20552;-73
2021/06/16 07:54:02;;;;;;;52.40;25.33;;;15.40;97.50;;;;;;4921537;29;20031;-73
2021/06/16 07:56:29;;;;;;;36.72;18.63;;;15.40;97.00;;;;;;4922552;29;20062;-72
2021/06/16 07:58:57;;;;;;;39.45;19.13;;;15.40;97.00;;;;;;4923818;29;20566;-71
2021/06/16 08:01:24;;;;;;;35.60;16.92;;;15.40;97.20;;;;;;4925365;29;20414;-75
2021/06/16 08:03:52;;;;;;;33.00;15.38;;;15.40;97.30;;;;;;4904820;29;20024;-72
2021/06/16 08:06:19;;;;;;;69.30;27.67;;;15.30;97.30;;;;;;4923642;29;20099;-72
2021/06/16 08:08:46;;;;;;;41.28;19.02;;;15.20;97.20;;;;;;4923745;29;20054;-73
2021/06/16 08:11:14;;;;;;;28.15;13.90;;;15.20;97.30;;;;;;4924300;29;20054;-73
2021/06/16 08:13:42;;;;;;;19.58;8.50;;;15.20;97.30;;;;;;4923007;29;20045;-75
2021/06/16 08:16:09;;;;;;;10.82;6.07;;;15.20;97.70;;;;;;4925402;29;20031;-71
2021/06/16 08:18:37;;;;;;;5.85;3.90;;;15.20;97.70;;;;;;4925185;29;20024;-72
2021/06/16 08:21:05;;;;;;;8.10;5.55;;;15.20;97.80;;;;;;4925030;29;20669;-74
2021/06/16 08:23:32;;;;;;;7.95;5.10;;;15.10;98.20;;;;;;4920572;29;20060;-73
2021/06/16 08:26:02;;;;;;;7.68;4.82;;;15.10;98.30;;;;;;4925103;29;20098;-71
2021/06/16 08:28:29;;;;;;;7.97;5.50;;;15.00;98.50;;;;;;4922115;29;20039;-72
2021/06/16 08:30:56;;;;;;;8.43;5.25;;;14.90;98.60;;;;;;4925577;29;20320;-73
2021/06/16 08:33:24;;;;;;;9.15;5.13;;;14.90;98.70;;;;;;4923829;29;20118;-72
2021/06/16 08:35:51;;;;;;;9.60;6.18;;;15.00;98.50;;;;;;4924584;29;20349;-71
2021/06/16 08:38:19;;;;;;;14.80;8.32;;;15.00;98.40;;;;;;4923229;29;20040;-72
2021/06/16 08:40:46;;;;;;;16.15;8.23;;;15.00;98.50;;;;;;4924554;29;20032;-69
2021/06/16 08:43:14;;;;;;;10.85;5.50;;;15.00;98.90;;;;;;4920078;29;20042;-72
2021/06/16 08:45:42;;;;;;;13.15;5.82;;;15.00;99.20;;;;;;4921861;29;20118;-73
2021/06/16 08:48:11;;;;;;;9.48;5.95;;;15.00;99.30;;;;;;4925056;29;20118;-72
2021/06/16 08:50:39;;;;;;;11.95;6.35;;;15.00;99.80;;;;;;4927374;29;20058;-72
2021/06/16 08:53:06;;;;;;;14.07;7.72;;;14.90;99.90;;;;;;4926837;29;20027;-72
2021/06/16 08:55:33;;;;;;;14.02;7.88;;;14.90;99.90;;;;;;4926895;29;20112;-70
2021/06/16 08:58:01;;;;;;;11.65;6.75;;;14.90;99.80;;;;;;4923893;29;20032;-70
2021/06/16 09:00:28;;;;;;;9.77;5.88;;;14.90;99.90;;;;;;4927288;29;20058;-71
2021/06/16 09:02:56;;;;;;;6.70;5.10;;;14.90;99.90;;;;;;4927572;29;20534;-70
2021/06/16 09:05:40;;;;;;;6.22;4.80;;;14.80;99.90;;;;;;4928516;29;20391;-74
2021/06/16 09:08:19;;;;;;;8.38;4.90;;;14.70;99.90;;;;;;4924610;29;20778;-72
2021/06/16 09:10:54;;;;;;;11.32;5.03;;;14.70;99.90;;;;;;4925622;29;20427;-71
2021/06/16 09:13:25;;;;;;;7.72;5.78;;;14.70;99.90;;;;;;4926036;29;20019;-72
2021/06/16 09:15:54;;;;;;;10.95;7.30;;;14.70;99.90;;;;;;4926706;29;20067;-73
2021/06/16 09:18:22;;;;;;;10.07;5.95;;;14.70;99.90;;;;;;4926124;29;20083;-71
2021/06/16 09:20:53;;;;;;;7.55;5.35;;;14.60;99.90;;;;;;4924683;29;20032;-72
2021/06/16 09:23:29;;;;;;;8.45;5.47;;;14.30;99.90;;;;;;4931854;29;20106;-70
2021/06/16 09:26:10;;;;;;;;;;;14.30;99.90;;;;;;4924933;29;20201;-73
2021/06/16 09:28:46;;;;;;;7.00;5.03;;;14.30;99.90;;;;;;4925250;29;20395;-70
2021/06/16 09:31:15;;;;;;;4.97;3.85;;;14.30;99.90;;;;;;4927927;29;20027;-72
2021/06/16 09:33:43;;;;;;;7.72;4.97;;;14.20;99.90;;;;;;4928308;29;20391;-73
2021/06/16 09:36:16;;;;;;;10.05;5.35;;;14.20;99.90;;;;;;4927942;29;20530;-72
2021/06/16 09:38:46;;;;;;;6.55;5.15;;;14.20;99.90;;;;;;4928509;29;20039;-71
2021/06/16 09:41:16;;;;;;;9.20;5.53;;;14.20;99.90;;;;;;4924215;29;20039;-71
2021/06/16 09:43:44;;;;;;;13.73;8.55;;;14.10;99.90;;;;;;4925472;29;20023;-73
2021/06/16 09:46:13;;;;;;;8.10;5.35;;;14.00;99.90;;;;;;4927203;29;20063;-69
2021/06/16 09:48:45;;;;;;;6.57;4.70;;;14.00;99.90;;;;;;4929372;29;20830;-74
2021/06/16 09:51:34;;;;;;;5.53;3.53;;;14.00;99.90;;;;;;4928808;29;20031;-72
2021/06/16 09:54:15;;;;;;;7.05;5.18;;;14.00;99.90;;;;;;4929337;29;20028;-72
2021/06/16 09:56:46;;;;;;;6.82;5.28;;;13.90;99.90;;;;;;4924253;29;20422;-71
2021/06/16 09:59:34;;;;;;;15.68;10.32;;;13.80;99.90;;;;;;4930028;29;20039;-73
2021/06/16 10:02:01;;;;;;;13.55;10.00;;;13.70;99.90;;;;;;4921963;29;20071;-73
2021/06/16 10:04:36;;;;;;;11.48;8.85;;;13.60;99.90;;;;;;4927609;29;20036;-71
2021/06/16 10:07:30;;;;;;;12.53;9.10;;;13.50;99.90;;;;;;4921278;29;20063;-73
2021/06/16 10:10:08;;;;;;;11.52;7.78;;;13.50;99.90;;;;;;4923143;29;20039;-71
2021/06/16 10:12:44;;;;;;;9.25;6.78;;;13.30;99.90;;;;;;4925898;29;20036;-73
2021/06/16 10:15:14;;;;;;;8.05;6.15;;;13.30;99.90;;;;;;4926592;29;20059;-69
2021/06/16 10:17:43;;;;;;;11.38;5.22;;;13.30;99.90;;;;;;4927498;29;20110;-73
2021/06/16 10:20:13;;;;;;;7.85;5.22;;;13.20;99.90;;;;;;4931046;29;20032;-73
2021/06/16 10:22:41;;;;;;;10.60;7.07;;;13.20;99.90;;;;;;4927506;29;20062;-72
2021/06/16 10:25:09;;;;;;;11.55;8.25;;;13.20;99.90;;;;;;4925512;29;20039;-69
2021/06/16 10:27:57;;;;;;;13.95;7.85;;;13.20;99.90;;;;;;4924587;29;20043;-72
2021/06/16 10:30:26;;;;;;;11.23;7.80;;;13.20;99.90;;;;;;4920983;29;20086;-72
2021/06/16 10:32:53;;;;;;;12.10;8.02;;;13.20;99.90;;;;;;4925825;29;20027;-71
2021/06/16 10:35:34;;;;;;;14.50;8.48;;;13.30;99.90;;;;;;4926413;29;20069;-72
2021/06/16 10:38:18;;;;;;;12.65;8.50;;;13.40;99.90;;;;;;4921280;29;20502;-71
2021/06/16 10:40:51;;;;;;;11.77;7.68;;;13.40;99.90;;;;;;4925052;29;20041;-72
2021/06/16 10:43:24;;;;;;;11.90;7.72;;;13.30;99.90;;;;;;4926660;29;20031;-70
2021/06/16 10:46:08;;;;;;;12.25;7.50;;;13.30;99.90;;;;;;4926689;29;20044;-72
2021/06/16 10:48:58;;;;;;;9.18;6.72;;;13.20;99.90;;;;;;4927336;29;20024;-70
2021/06/16 10:51:42;;;;;;;17.50;7.78;;;13.10;99.90;;;;;;4930379;29;20036;-71
2021/06/16 10:54:24;;;;;;;8.05;6.15;;;13.10;99.90;;;;;;4925896;29;20479;-71
2021/06/16 10:56:55;;;;;;;8.02;5.68;;;13.10;99.90;;;;;;4925087;29;20059;-72
2021/06/16 10:59:43;;;;;;;13.65;7.28;;;13.00;99.90;;;;;;4925807;29;20028;-70
2021/06/16 11:02:13;;;;;;;12.88;6.38;;;12.90;99.90;;;;;;4926248;29;20086;-70
2021/06/16 11:04:42;;;;;;;17.88;6.85;;;13.00;99.90;;;;;;4925500;29;20496;-71
2021/06/16 11:07:27;;;;;;;14.50;10.95;;;13.00;99.90;;;;;;4925647;29;20528;-72
2021/06/16 11:10:00;;;;;;;19.25;12.13;;;13.00;99.90;;;;;;4930208;29;20051;-72
2021/06/16 11:12:44;;;;;;;18.38;8.93;;;13.00;99.90;;;;;;4921215;29;20063;-73
2021/06/16 11:15:31;;;;;;;15.32;8.82;;;13.10;99.90;;;;;;4925186;29;20020;-70
2021/06/16 11:17:59;;;;;;;;;;;13.10;99.90;;;;;;4927211;29;20028;-72
2021/06/16 11:20:27;;;;;;;12.27;7.53;;;13.20;99.90;;;;;;4924421;29;19910;-73
2021/06/16 11:22:59;;;;;;;12.75;7.80;;;13.30;99.90;;;;;;4926000;29;20430;-72
2021/06/16 11:25:34;;;;;;;14.60;7.57;;;13.30;99.90;;;;;;4923675;29;20051;-72
2021/06/16 11:28:12;;;;;;;13.02;9.43;;;13.20;99.90;;;;;;4924027;29;20039;-72
2021/06/16 11:30:51;;;;;;;14.15;8.13;;;13.00;99.90;;;;;;4924519;29;20036;-71
2021/06/16 11:33:26;;;;;;;12.95;7.75;;;12.70;99.90;;;;;;4923419;29;20023;-71
2021/06/16 11:35:59;;;;;;;11.40;7.10;;;12.60;99.90;;;;;;4925092;29;20027;-72
2021/06/16 11:38:52;;;;;;;19.98;7.10;;;12.60;99.90;;;;;;4922811;29;20094;-72
2021/06/16 11:41:23;;;;;;;10.73;5.75;;;12.60;99.90;;;;;;4923220;29;20032;-71
2021/06/16 11:43:53;;;;;;;15.25;5.78;;;12.60;99.90;;;;;;4923317;29;20126;-72
2021/06/16 11:46:33;;;;;;;14.18;6.60;;;12.60;99.90;;;;;;4923768;29;20039;-71
2021/06/16 11:49:08;;;;;;;13.60;8.05;;;12.60;99.90;;;;;;4924174;29;20040;-72
2021/06/16 11:51:53;;;;;;;13.75;6.75;;;12.50;99.90;;;;;;4929044;29;20078;-71
2021/06/16 11:54:43;;;;;;;17.33;7.57;;;12.40;99.90;;;;;;4928951;29;20398;-71
2021/06/16 11:57:15;;;;;;;10.68;6.25;;;12.30;99.90;;;;;;4924544;29;20055;-71
2021/06/16 11:59:54;;;;;;;8.55;5.97;;;12.30;99.90;;;;;;4922753;29;20031;-73
2021/06/16 12:02:29;;;;;;;7.38;5.75;;;12.30;99.90;;;;;;4923546;29;20115;-73
2021/06/16 12:05:06;;;;;;;7.30;5.07;;;12.30;99.90;;;;;;4924862;29;20031;-73
2021/06/16 12:07:44;;;;;;;6.50;4.45;;;12.40;99.90;;;;;;4923302;29;20123;-73
2021/06/16 12:10:15;;;;;;;7.85;5.15;;;12.50;99.90;;;;;;4932562;29;20027;-71
2021/06/16 12:12:52;;;;;;;6.03;4.90;;;12.50;99.90;;;;;;4924883;29;20038;-73
2021/06/16 12:15:22;;;;;;;6.38;4.07;;;12.60;99.90;;;;;;4923899;29;20028;-74
2021/06/16 12:18:03;;;;;;;4.82;3.38;;;12.60;99.90;;;;;;4924257;29;20488;-72
2021/06/16 12:20:34;;;;;;;8.05;5.15;;;12.70;99.90;;;;;;4925798;29;20043;-71
2021/06/16 12:23:17;;;;;;;5.85;4.57;;;12.70;99.90;;;;;;4927791;29;20435;-69
2021/06/16 12:25:45;;;;;;;5.90;4.68;;;12.80;99.90;;;;;;4928678;29;20044;-71
2021/06/16 12:28:14;;;;;;;5.32;4.00;;;12.80;99.90;;;;;;4926444;29;20038;-70
2021/06/16 12:30:42;;;;;;;6.57;4.50;;;12.80;99.90;;;;;;4925505;29;20435;-71
2021/06/16 12:33:21;;;;;;;5.78;3.72;;;12.90;99.90;;;;;;4929461;29;22162;-72
2021/06/16 12:36:08;;;;;;;4.85;3.72;;;12.90;99.90;;;;;;4928954;29;20067;-72
2021/06/16 12:38:43;;;;;;;5.30;4.00;;;12.90;99.90;;;;;;4914915;29;20028;-70
2021/06/16 12:41:40;;;;;;;5.95;3.55;;;12.90;99.90;;;;;;4924144;29;20094;-72
2021/06/16 12:44:44;;;;;;;6.07;3.33;;;12.90;99.90;;;;;;4931849;29;20075;-70
2021/06/16 12:47:34;;;;;;;6.25;3.10;;;12.90;99.90;;;;;;4927251;29;20043;-69
2021/06/16 12:50:05;;;;;;;6.53;3.30;;;12.90;99.90;;;;;;4931445;29;20356;-71
2021/06/16 12:52:34;;;;;;;6.85;4.32;;;12.90;99.90;;;;;;4926515;29;20055;-70
2021/06/16 12:55:12;;;;;;;13.60;4.13;;;12.80;99.90;;;;;;4928654;29;20024;-70
2021/06/16 12:57:52;;;;;;;12.40;3.50;;;12.80;99.90;;;;;;4930216;29;20039;-71
2021/06/16 13:00:23;;;;;;;8.32;4.18;;;12.70;99.90;;;;;;4928212;29;20558;-71
2021/06/16 13:02:50;;;;;;;6.50;4.55;;;12.70;99.90;;;;;;4929625;29;20066;-71